Round Spring, Missouri
Current Conditions -  °F | °C
As of 8:53 PM on Thursday 27 Nov 2014 (Local Time) from KUNO Reporting Station
Clear Clear  
Wind Chill:   Ceiling: Unl
Heat Index:   Visibility: 10mi
Dew Point: -6°   Wind: 3mph
Humidity: 61%   Direction: 120°ESE
Pressure: 30.4"   Gusts: NA
Location:  37.1833°N, 91.4819°W
Report Text: KUNO 280253Z AUTO 12003KT 10SM CLR 01/M06 A3040 RMK AO2 SLP304 T00061061 58004
Loading
Personal Weather Stations






























Interactive Weather Map New forecast layout! Learn more

10-Day Weather Forecast

Advertisements
Track Severe Weather on mobile